createdAt,value
2023-05-17T00:00:27.425Z,10.80
2023-05-17T00:02:55.192Z,10.80
2023-05-17T00:05:24.546Z,10.60
2023-05-17T00:07:52.408Z,10.70
2023-05-17T00:10:20.265Z,11.00
2023-05-17T00:12:48.046Z,11.00
2023-05-17T00:15:15.827Z,10.70
2023-05-17T00:17:43.658Z,10.70
2023-05-17T00:20:12.464Z,10.80
2023-05-17T00:22:43.166Z,10.80
2023-05-17T00:25:10.933Z,10.60
2023-05-17T00:27:38.718Z,10.60
2023-05-17T00:30:08.293Z,10.60
2023-05-17T00:32:36.092Z,10.70
2023-05-17T00:35:04.182Z,10.60
2023-05-17T00:37:32.007Z,10.70
2023-05-17T00:40:01.218Z,10.50
2023-05-17T00:42:29.022Z,10.50
2023-05-17T00:44:56.856Z,10.40
2023-05-17T00:47:24.742Z,10.50
2023-05-17T00:49:52.699Z,10.40
2023-05-17T00:52:20.466Z,10.50
2023-05-17T00:54:48.264Z,10.30
2023-05-17T00:57:17.772Z,10.40
2023-05-17T00:59:46.154Z,10.40
2023-05-17T01:02:14.019Z,10.50
2023-05-17T01:04:42.523Z,10.50
2023-05-17T01:07:11.991Z,10.50
2023-05-17T01:09:39.999Z,10.30
2023-05-17T01:12:16.386Z,10.30
2023-05-17T01:14:54.416Z,10.30
2023-05-17T01:17:28.859Z,10.30
2023-05-17T01:20:06.907Z,10.20
2023-05-17T01:22:44.051Z,10.40
2023-05-17T01:25:37.034Z,10.20
2023-05-17T01:28:07.137Z,10.30
2023-05-17T01:30:36.803Z,10.10
2023-05-17T01:33:05.911Z,10.20
2023-05-17T01:35:33.981Z,9.80
2023-05-17T01:38:01.771Z,9.50
2023-05-17T01:40:30.286Z,9.90
2023-05-17T01:43:05.763Z,10.00
2023-05-17T01:45:42.352Z,9.70
2023-05-17T01:48:20.713Z,10.20
2023-05-17T01:50:51.196Z,9.50
2023-05-17T01:53:24.432Z,9.80
2023-05-17T01:55:55.026Z,10.10
2023-05-17T01:58:25.911Z,9.80
2023-05-17T02:00:57.609Z,9.90
2023-05-17T02:03:25.645Z,9.90
2023-05-17T02:05:53.514Z,9.80
2023-05-17T02:08:21.322Z,9.80
2023-05-17T02:10:49.137Z,9.50
2023-05-17T02:13:16.934Z,9.80
2023-05-17T02:15:44.673Z,9.70
2023-05-17T02:18:13.979Z,9.90
2023-05-17T02:20:41.888Z,9.90
2023-05-17T02:23:09.644Z,9.20
2023-05-17T02:25:37.442Z,9.80
2023-05-17T02:28:05.556Z,9.70
2023-05-17T02:30:33.299Z,9.40
2023-05-17T02:33:01.230Z,9.50
2023-05-17T02:35:31.048Z,9.00
2023-05-17T02:37:59.033Z,9.60
2023-05-17T02:40:26.798Z,9.60
2023-05-17T02:42:54.596Z,9.80
2023-05-17T02:45:22.404Z,9.80
2023-05-17T02:47:50.739Z,9.80
2023-05-17T02:50:18.746Z,9.70
2023-05-17T02:52:47.905Z,9.70
2023-05-17T02:55:15.862Z,9.70
2023-05-17T02:57:43.645Z,9.70
2023-05-17T03:00:11.898Z,9.90
2023-05-17T03:02:39.852Z,9.90
2023-05-17T03:05:08.688Z,9.80
2023-05-17T03:07:36.865Z,9.40
2023-05-17T03:10:07.039Z,9.70
2023-05-17T03:12:34.861Z,9.60
2023-05-17T03:15:02.915Z,9.60
2023-05-17T03:17:30.713Z,9.80
2023-05-17T03:19:58.547Z,9.50
2023-05-17T03:22:26.325Z,9.40
2023-05-17T03:24:54.088Z,9.40
2023-05-17T03:27:23.324Z,9.50
2023-05-17T03:29:51.216Z,9.50
2023-05-17T03:32:18.987Z,9.50
2023-05-17T03:34:46.764Z,9.20
2023-05-17T03:37:14.535Z,9.50
2023-05-17T03:39:42.283Z,9.50
2023-05-17T03:42:10.097Z,9.20
2023-05-17T03:44:39.266Z,9.50
2023-05-17T03:47:07.398Z,9.70
2023-05-17T03:49:35.341Z,9.70
2023-05-17T03:52:03.406Z,9.50
2023-05-17T03:54:31.309Z,9.50
2023-05-17T03:56:59.143Z,9.70
2023-05-17T03:59:26.985Z,9.70
2023-05-17T04:01:56.176Z,9.80
2023-05-17T04:04:24.197Z,9.70
2023-05-17T04:06:52.050Z,9.60
2023-05-17T04:09:19.835Z,9.60
2023-05-17T04:11:47.634Z,9.80
2023-05-17T04:14:15.905Z,9.70
2023-05-17T04:16:43.652Z,9.70
2023-05-17T04:19:12.908Z,9.90
2023-05-17T04:21:40.911Z,9.80
2023-05-17T04:24:09.076Z,9.40
2023-05-17T04:26:36.960Z,9.90
2023-05-17T04:29:04.796Z,10.00
2023-05-17T04:31:32.903Z,9.90
2023-05-17T04:34:01.171Z,10.10
2023-05-17T04:36:30.948Z,9.90
2023-05-17T04:38:59.322Z,10.10
2023-05-17T04:41:27.351Z,10.10
2023-05-17T04:43:55.146Z,9.70
2023-05-17T04:46:22.909Z,10.40
2023-05-17T04:48:50.795Z,9.70
2023-05-17T04:51:18.763Z,9.60
2023-05-17T04:53:48.023Z,10.10
2023-05-17T04:56:16.317Z,10.10
2023-05-17T04:58:44.105Z,10.10
2023-05-17T05:01:12.071Z,10.10
2023-05-17T05:03:40.005Z,10.30
2023-05-17T05:06:08.130Z,10.40
2023-05-17T05:08:37.051Z,10.70
2023-05-17T05:11:06.373Z,10.50
2023-05-17T05:13:34.239Z,10.60
2023-05-17T05:16:02.162Z,10.70
2023-05-17T05:18:29.978Z,10.80
2023-05-17T05:20:57.821Z,10.90
2023-05-17T05:23:25.871Z,11.20
2023-05-17T05:25:53.854Z,10.90
2023-05-17T05:28:23.034Z,10.90
2023-05-17T05:30:50.946Z,10.90
2023-05-17T05:33:18.785Z,11.00
2023-05-17T05:35:47.238Z,11.10
2023-05-17T05:38:15.017Z,11.20
2023-05-17T05:40:42.873Z,11.50
2023-05-17T05:43:10.642Z,11.60
2023-05-17T05:45:41.208Z,11.70
2023-05-17T05:48:09.230Z,12.30
2023-05-17T05:50:37.150Z,12.30
2023-05-17T05:53:17.178Z,12.40
2023-05-17T05:55:46.973Z,12.60
2023-05-17T05:58:14.878Z,12.60
2023-05-17T06:00:44.055Z,12.30
2023-05-17T06:03:11.917Z,13.00
2023-05-17T06:05:40.411Z,13.40
2023-05-17T06:08:08.477Z,13.40
2023-05-17T06:10:36.273Z,13.30
2023-05-17T06:13:04.052Z,13.30
2023-05-17T06:15:32.455Z,13.40
2023-05-17T06:18:01.852Z,13.80
2023-05-17T06:20:30.101Z,14.00
2023-05-17T06:22:58.262Z,14.10
2023-05-17T06:25:26.140Z,14.30
2023-05-17T06:27:53.967Z,14.20
2023-05-17T06:30:22.260Z,14.30
2023-05-17T06:32:50.115Z,15.00
2023-05-17T06:35:19.326Z,15.20
2023-05-17T06:37:47.188Z,15.10
2023-05-17T06:40:17.024Z,16.80
2023-05-17T06:42:45.285Z,19.40
2023-05-17T06:45:13.585Z,20.90
2023-05-17T06:47:41.768Z,21.80
2023-05-17T06:50:10.530Z,22.40
2023-05-17T06:52:39.708Z,23.00
2023-05-17T06:55:09.194Z,23.10
2023-05-17T06:57:37.358Z,23.60
2023-05-17T07:00:10.255Z,24.00
2023-05-17T07:02:38.232Z,24.50
2023-05-17T07:05:07.456Z,24.80
2023-05-17T07:07:35.399Z,25.00
2023-05-17T07:10:04.872Z,24.90
2023-05-17T07:12:32.799Z,24.60
2023-05-17T07:15:00.821Z,24.40
2023-05-17T07:17:30.031Z,24.60
2023-05-17T07:19:58.216Z,24.40
2023-05-17T07:22:26.172Z,24.40
2023-05-17T07:24:53.977Z,23.50
2023-05-17T07:27:23.139Z,23.90
2023-05-17T07:29:51.204Z,23.80
2023-05-17T07:32:19.033Z,23.60
2023-05-17T07:34:46.914Z,23.60
2023-05-17T07:37:14.846Z,22.90
2023-05-17T07:39:42.638Z,22.40
2023-05-17T07:42:12.866Z,23.30
2023-05-17T07:44:42.089Z,24.10
2023-05-17T07:47:09.948Z,22.80
2023-05-17T07:49:37.805Z,21.20
2023-05-17T07:52:06.049Z,20.00
2023-05-17T07:54:33.841Z,19.10
2023-05-17T07:57:01.778Z,18.50
2023-05-17T07:59:29.594Z,18.20
2023-05-17T08:02:01.699Z,18.50
2023-05-17T08:04:31.710Z,18.40
2023-05-17T08:07:01.614Z,18.50
2023-05-17T08:09:31.489Z,18.50
2023-05-17T08:12:02.460Z,18.30
2023-05-17T08:14:33.426Z,18.00
2023-05-17T08:17:04.850Z,17.50
2023-05-17T08:19:34.929Z,17.50
2023-05-17T08:22:04.890Z,17.30
2023-05-17T08:24:34.858Z,17.10
2023-05-17T08:27:04.639Z,17.10
2023-05-17T08:29:34.464Z,16.50
2023-05-17T08:32:06.281Z,16.80
2023-05-17T08:34:35.997Z,16.90
2023-05-17T08:37:06.004Z,16.50
2023-05-17T08:39:35.809Z,16.70
2023-05-17T08:42:09.475Z,16.30
2023-05-17T08:44:39.287Z,16.60
2023-05-17T08:47:13.220Z,16.60
2023-05-17T08:49:45.296Z,17.10
2023-05-17T08:52:17.627Z,17.00
2023-05-17T08:54:47.687Z,17.50
2023-05-17T08:57:19.797Z,17.30
2023-05-17T08:59:48.570Z,16.90
2023-05-17T09:02:17.859Z,17.40
2023-05-17T09:04:45.926Z,17.20
2023-05-17T09:07:16.599Z,16.90
2023-05-17T09:09:45.133Z,17.00
2023-05-17T09:12:13.010Z,16.90
2023-05-17T09:14:40.872Z,17.10
2023-05-17T09:17:08.718Z,17.70
2023-05-17T09:19:45.541Z,17.50
2023-05-17T09:22:18.807Z,17.40
2023-05-17T09:24:46.880Z,17.10
2023-05-17T09:27:16.479Z,16.70
2023-05-17T09:29:46.079Z,16.90
2023-05-17T09:32:15.132Z,16.70
2023-05-17T09:34:46.954Z,16.70
2023-05-17T09:37:15.940Z,16.80
2023-05-17T09:39:44.757Z,16.40
2023-05-17T09:42:12.770Z,16.50
2023-05-17T09:44:48.440Z,16.30
2023-05-17T09:47:27.406Z,16.90
2023-05-17T09:49:58.255Z,17.10
2023-05-17T09:52:26.884Z,16.60
2023-05-17T09:54:56.082Z,17.10
2023-05-17T09:57:24.389Z,16.40
2023-05-17T09:59:55.931Z,16.80
2023-05-17T10:02:27.588Z,16.70
2023-05-17T10:04:59.271Z,16.50
2023-05-17T10:07:28.096Z,16.20
2023-05-17T10:09:57.428Z,16.30
2023-05-17T10:12:29.380Z,16.40
2023-05-17T10:14:59.955Z,16.90
2023-05-17T10:17:29.773Z,17.00
2023-05-17T10:19:59.841Z,17.20
2023-05-17T10:22:29.005Z,17.60
2023-05-17T10:24:58.429Z,17.10
2023-05-17T10:27:27.152Z,17.30
2023-05-17T10:29:55.484Z,17.80
2023-05-17T10:32:27.099Z,17.70
2023-05-17T10:35:06.546Z,17.70
2023-05-17T10:37:41.130Z,17.60
2023-05-17T10:40:13.199Z,17.10
2023-05-17T10:42:43.411Z,17.30
2023-05-17T10:45:13.165Z,17.30
2023-05-17T10:47:42.550Z,17.00
2023-05-17T10:50:13.225Z,17.40
2023-05-17T10:52:48.146Z,17.20
2023-05-17T10:57:51.129Z,16.90
2023-05-17T11:00:22.273Z,16.90
2023-05-17T11:02:50.625Z,16.80
2023-05-17T11:05:28.220Z,17.10
2023-05-17T11:08:14.117Z,17.10
2023-05-17T11:11:09.967Z,16.90
2023-05-17T11:13:46.232Z,17.20
2023-05-17T11:16:17.981Z,17.00
2023-05-17T11:18:50.128Z,17.00
2023-05-17T11:21:18.337Z,16.80
2023-05-17T11:23:49.246Z,17.30
2023-05-17T11:26:21.707Z,17.60
2023-05-17T11:28:49.795Z,17.70
2023-05-17T11:31:17.688Z,17.70
2023-05-17T11:33:46.570Z,18.50
2023-05-17T11:36:23.728Z,19.20
2023-05-17T11:39:11.369Z,20.10
2023-05-17T11:41:41.458Z,20.70
2023-05-17T11:44:10.060Z,21.10
2023-05-17T11:46:38.921Z,20.90
2023-05-17T11:49:08.207Z,20.70
2023-05-17T11:51:36.392Z,20.50
2023-05-17T11:54:08.360Z,20.30
2023-05-17T11:56:43.376Z,19.80
2023-05-17T11:59:12.462Z,19.40
2023-05-17T12:01:47.555Z,19.30
2023-05-17T12:04:23.550Z,19.00
2023-05-17T12:06:51.637Z,19.20
2023-05-17T12:09:21.215Z,19.30
2023-05-17T12:11:49.072Z,19.60
2023-05-17T12:14:18.184Z,19.60
2023-05-17T12:16:48.984Z,19.90
2023-05-17T12:19:20.548Z,19.80
2023-05-17T12:21:48.923Z,20.10
2023-05-17T12:24:17.048Z,20.30
2023-05-17T12:26:47.339Z,20.30
2023-05-17T12:29:17.846Z,20.10
2023-05-17T12:31:49.413Z,19.80
2023-05-17T12:34:18.641Z,20.10
2023-05-17T12:36:46.908Z,20.20
2023-05-17T12:39:17.341Z,20.30
2023-05-17T12:41:46.772Z,20.70
2023-05-17T12:44:16.679Z,20.40
2023-05-17T12:46:45.324Z,20.20
2023-05-17T12:49:13.389Z,20.20
2023-05-17T12:51:43.149Z,20.20
2023-05-17T12:54:12.030Z,20.50
2023-05-17T12:56:43.443Z,19.90
2023-05-17T12:59:16.713Z,20.50
2023-05-17T13:01:45.887Z,20.70
2023-05-17T13:04:14.802Z,20.60
2023-05-17T13:06:46.655Z,20.70
2023-05-17T13:09:15.351Z,20.70
2023-05-17T13:11:43.218Z,21.00
2023-05-17T13:14:12.431Z,20.50
2023-05-17T13:16:42.768Z,20.80
2023-05-17T13:19:15.347Z,20.80
2023-05-17T13:21:43.256Z,20.90
2023-05-17T13:24:11.537Z,21.00
2023-05-17T13:26:39.306Z,20.60
2023-05-17T13:29:07.156Z,21.10
2023-05-17T13:31:35.002Z,20.50
2023-05-17T13:34:04.180Z,20.50
2023-05-17T13:36:32.057Z,20.30
2023-05-17T13:39:01.821Z,20.80
2023-05-17T13:41:29.631Z,20.80
2023-05-17T13:43:58.330Z,21.00
2023-05-17T13:46:26.322Z,20.90
2023-05-17T13:48:54.324Z,20.60
2023-05-17T13:51:25.425Z,20.60
2023-05-17T13:53:53.282Z,20.50
2023-05-17T13:56:22.166Z,20.60
2023-05-17T13:58:50.387Z,20.60
2023-05-17T14:01:18.721Z,20.60
2023-05-17T14:03:46.763Z,20.60
2023-05-17T14:06:14.648Z,20.60
2023-05-17T14:08:44.813Z,20.50
2023-05-17T14:11:12.712Z,20.80
2023-05-17T14:13:41.043Z,20.80
2023-05-17T14:16:09.122Z,20.20
2023-05-17T14:18:36.982Z,19.70
2023-05-17T14:21:05.187Z,19.20
2023-05-17T14:23:34.637Z,18.90
2023-05-17T14:26:07.139Z,18.70
2023-05-17T14:28:37.758Z,18.90
2023-05-17T14:31:05.963Z,19.10
2023-05-17T14:33:33.805Z,19.40
2023-05-17T14:36:01.721Z,19.80
2023-05-17T14:38:29.588Z,20.10
2023-05-17T14:40:57.406Z,20.30
2023-05-17T14:43:26.886Z,20.20
2023-05-17T14:45:54.666Z,20.20
2023-05-17T14:48:22.921Z,20.40
2023-05-17T14:50:51.393Z,20.40
2023-05-17T14:53:19.199Z,20.30
2023-05-17T14:55:47.560Z,20.30
2023-05-17T14:58:15.473Z,20.30
2023-05-17T15:00:48.468Z,20.10
2023-05-17T15:03:21.693Z,19.70
2023-05-17T15:05:54.564Z,19.50
2023-05-17T15:08:22.762Z,19.00
2023-05-17T15:10:51.580Z,19.10
2023-05-17T15:13:19.388Z,19.10
2023-05-17T15:15:48.512Z,19.10
2023-05-17T15:18:16.490Z,18.90
2023-05-17T15:20:44.356Z,18.50
2023-05-17T15:23:12.352Z,18.90
2023-05-17T15:25:40.229Z,18.80
2023-05-17T15:28:08.320Z,18.90
2023-05-17T15:30:36.175Z,18.70
2023-05-17T15:33:05.595Z,18.40
2023-05-17T15:35:33.802Z,18.40
2023-05-17T15:38:06.645Z,18.70
2023-05-17T15:40:34.728Z,18.60
2023-05-17T15:43:02.863Z,18.90
2023-05-17T15:45:31.225Z,18.50
2023-05-17T15:48:01.777Z,19.00
2023-05-17T15:50:31.120Z,18.90
2023-05-17T15:53:00.202Z,18.90
2023-05-17T15:55:29.866Z,18.80
2023-05-17T15:57:57.905Z,19.00
2023-05-17T16:00:26.103Z,18.40
2023-05-17T16:02:54.033Z,18.40
2023-05-17T16:05:22.131Z,18.20
2023-05-17T16:07:52.014Z,18.40
2023-05-17T16:10:19.944Z,18.10
2023-05-17T16:12:49.249Z,18.10
2023-05-17T16:15:17.225Z,18.00
2023-05-17T16:17:45.182Z,18.20
2023-05-17T16:20:13.828Z,17.90
2023-05-17T16:22:45.011Z,18.10
2023-05-17T16:25:16.826Z,17.90
2023-05-17T16:27:45.463Z,18.10
2023-05-17T16:30:13.878Z,17.90
2023-05-17T16:32:42.183Z,18.30
2023-05-17T16:35:10.691Z,17.60
2023-05-17T16:37:38.487Z,18.00
2023-05-17T16:40:07.385Z,17.90
2023-05-17T16:42:36.569Z,18.10
2023-05-17T16:45:07.057Z,17.90
2023-05-17T16:47:36.136Z,18.10
2023-05-17T16:50:05.305Z,17.80
2023-05-17T16:52:33.066Z,17.90
2023-05-17T16:55:03.385Z,17.90
2023-05-17T16:57:32.118Z,17.50
2023-05-17T17:00:01.969Z,17.80
2023-05-17T17:02:30.641Z,17.90
2023-05-17T17:04:59.171Z,17.80
2023-05-17T17:07:26.986Z,17.60
2023-05-17T17:09:54.857Z,17.70
2023-05-17T17:12:25.208Z,17.80
2023-05-17T17:14:54.116Z,17.50
2023-05-17T17:17:23.587Z,17.30
2023-05-17T17:19:52.150Z,17.60
2023-05-17T17:22:20.039Z,17.50
2023-05-17T17:24:48.096Z,16.90
2023-05-17T17:27:15.923Z,17.10
2023-05-17T17:29:43.789Z,17.50
2023-05-17T17:32:12.084Z,17.50
2023-05-17T17:34:41.299Z,16.70
2023-05-17T17:37:09.184Z,17.00
2023-05-17T17:39:37.783Z,16.70
2023-05-17T17:42:05.853Z,16.90
2023-05-17T17:44:33.648Z,16.70
2023-05-17T17:47:01.579Z,17.00
2023-05-17T17:49:30.034Z,16.30
2023-05-17T17:51:59.198Z,16.80
2023-05-17T17:54:26.975Z,17.00
2023-05-17T17:56:54.724Z,16.70
2023-05-17T17:59:22.583Z,16.80
2023-05-17T18:01:52.647Z,16.60
2023-05-17T18:04:20.806Z,16.70
2023-05-17T18:06:49.985Z,16.60
2023-05-17T18:09:19.165Z,16.50
2023-05-17T18:11:47.051Z,16.30
2023-05-17T18:14:15.571Z,16.60
2023-05-17T18:16:43.513Z,16.20
2023-05-17T18:19:11.658Z,16.20
2023-05-17T18:21:39.562Z,16.10
2023-05-17T18:24:08.163Z,15.90
2023-05-17T18:26:37.543Z,15.90
2023-05-17T18:29:05.416Z,15.50
2023-05-17T18:31:33.404Z,15.70
2023-05-17T18:34:01.250Z,15.40
2023-05-17T18:36:29.130Z,15.30
2023-05-17T18:38:58.511Z,15.60
2023-05-17T18:41:26.985Z,15.40
2023-05-17T18:44:01.378Z,15.40
2023-05-17T18:46:29.976Z,14.80
2023-05-17T18:48:58.043Z,15.10
2023-05-17T18:51:25.877Z,14.90
2023-05-17T18:53:53.726Z,14.90
2023-05-17T18:56:23.198Z,15.10
2023-05-17T18:58:52.636Z,14.50
2023-05-17T19:01:21.837Z,14.70
2023-05-17T19:03:51.428Z,14.80
2023-05-17T19:06:19.433Z,14.90
2023-05-17T19:08:47.496Z,14.70
2023-05-17T19:11:15.345Z,14.60
2023-05-17T19:13:43.278Z,14.80
2023-05-17T19:16:11.247Z,14.60
2023-05-17T19:18:40.409Z,14.30
2023-05-17T19:21:08.448Z,14.40
2023-05-17T19:23:36.353Z,14.30
2023-05-17T19:26:04.195Z,14.30
2023-05-17T19:28:32.987Z,14.30
2023-05-17T19:31:00.821Z,14.20
2023-05-17T19:33:28.610Z,14.10
2023-05-17T19:35:57.693Z,14.10
2023-05-17T19:38:25.492Z,14.00
2023-05-17T19:40:53.346Z,13.80
2023-05-17T19:43:21.129Z,13.90
2023-05-17T19:45:48.959Z,13.70
2023-05-17T19:48:17.346Z,13.70
2023-05-17T19:50:45.168Z,13.70
2023-05-17T19:53:14.263Z,13.70
2023-05-17T19:55:42.153Z,13.10
2023-05-17T19:58:09.954Z,13.60
2023-05-17T20:00:38.330Z,13.40
2023-05-17T20:03:06.306Z,13.60
2023-05-17T20:05:34.242Z,13.30
2023-05-17T20:08:02.503Z,13.30
2023-05-17T20:10:32.205Z,13.00
2023-05-17T20:13:00.221Z,13.30
2023-05-17T20:15:28.093Z,13.10
2023-05-17T20:17:56.110Z,13.40
2023-05-17T20:20:24.953Z,13.30
2023-05-17T20:22:52.838Z,13.20
2023-05-17T20:25:21.082Z,12.70
2023-05-17T20:27:50.185Z,13.00
2023-05-17T20:30:17.976Z,13.20
2023-05-17T20:32:45.880Z,13.00
2023-05-17T20:35:13.768Z,12.60
2023-05-17T20:37:41.536Z,13.30
2023-05-17T20:40:10.642Z,13.20
2023-05-17T20:42:40.255Z,13.10
2023-05-17T20:45:12.089Z,12.90
2023-05-17T20:47:41.791Z,13.40
2023-05-17T20:50:12.090Z,13.40
2023-05-17T20:52:40.139Z,12.80
2023-05-17T20:55:09.563Z,13.30
2023-05-17T20:57:37.456Z,13.40
2023-05-17T21:00:08.130Z,13.30
2023-05-17T21:02:38.620Z,13.30
2023-05-17T21:05:06.672Z,13.50
2023-05-17T21:07:35.131Z,13.60
2023-05-17T21:10:03.109Z,13.50
2023-05-17T21:12:31.099Z,13.30
2023-05-17T21:15:15.153Z,13.50
2023-05-17T21:17:45.490Z,13.20
2023-05-17T21:20:14.229Z,13.40
2023-05-17T21:22:42.010Z,12.60
2023-05-17T21:25:11.051Z,13.40
2023-05-17T21:27:38.878Z,13.30
2023-05-17T21:30:07.893Z,13.30
2023-05-17T21:32:35.937Z,13.20
2023-05-17T21:35:05.617Z,13.40
2023-05-17T21:37:33.457Z,13.10
2023-05-17T21:40:01.325Z,13.30
2023-05-17T21:42:29.292Z,13.60
2023-05-17T21:44:57.355Z,13.30
2023-05-17T21:47:25.319Z,13.30
2023-05-17T21:49:53.213Z,13.30
2023-05-17T21:52:22.514Z,13.00
2023-05-17T21:54:50.684Z,13.20
2023-05-17T21:57:21.254Z,13.10
2023-05-17T21:59:49.870Z,13.30
2023-05-17T22:02:17.974Z,13.20
2023-05-17T22:04:46.050Z,13.10
2023-05-17T22:07:14.240Z,13.20
2023-05-17T22:09:45.582Z,13.20
2023-05-17T22:12:13.709Z,13.60
2023-05-17T22:14:43.290Z,13.10
2023-05-17T22:17:11.250Z,13.40
2023-05-17T22:19:40.394Z,13.30
2023-05-17T22:22:08.638Z,13.30
2023-05-17T22:24:36.522Z,13.20
2023-05-17T22:27:06.093Z,12.60
2023-05-17T22:29:34.471Z,13.10
2023-05-17T22:32:02.407Z,13.00
2023-05-17T22:34:30.211Z,13.00
2023-05-17T22:36:58.292Z,13.00
2023-05-17T22:39:26.279Z,13.20
2023-05-17T22:41:54.031Z,12.70
2023-05-17T22:44:23.121Z,13.20
2023-05-17T22:46:51.042Z,12.80
2023-05-17T22:49:20.120Z,12.40
2023-05-17T22:51:47.912Z,12.90
2023-05-17T22:54:15.714Z,13.20
2023-05-17T22:56:43.577Z,13.10
2023-05-17T22:59:11.640Z,12.70
2023-05-17T23:01:40.805Z,12.80
2023-05-17T23:04:08.715Z,12.80
2023-05-17T23:06:36.593Z,12.60
2023-05-17T23:09:05.330Z,12.70
2023-05-17T23:11:34.700Z,12.80
2023-05-17T23:14:02.646Z,13.10
2023-05-17T23:16:30.579Z,12.70
2023-05-17T23:18:59.998Z,13.00
2023-05-17T23:21:27.847Z,12.90
2023-05-17T23:23:55.961Z,12.80
2023-05-17T23:26:23.703Z,12.70
2023-05-17T23:28:53.457Z,12.80
2023-05-17T23:31:21.712Z,12.80
2023-05-17T23:33:49.591Z,12.90
2023-05-17T23:36:20.585Z,12.40
2023-05-17T23:38:48.468Z,12.80
2023-05-17T23:41:18.137Z,12.80
2023-05-17T23:43:46.673Z,12.70
2023-05-17T23:46:19.660Z,12.20
2023-05-17T23:48:50.117Z,12.30
2023-05-17T23:51:20.681Z,12.60
2023-05-17T23:53:48.764Z,13.00
2023-05-17T23:56:17.627Z,12.40
2023-05-17T23:58:45.621Z,12.80
